»·PEaware :: N213BK KAVX-KSMO

N213BK :: KAVX-KSMO

FLIGHT INFORMATION

Flight Status: Arrived
Operator: Privately registered:
United States
More flights under this callsign
Pilot: Bradford K. (23688)
Aircraft: PIPER PA-28 CHEROKEE ARCHER
(P28A)
More flights by this aircraft type
Origin: KAVX Catalina
United States
Destination: KSMO Santa Monica Mun
United States
More flights between these airports :: More routes between these airports
Route: +SLI V8 POXKU V363 BAYJY V186 DARTS
File this flight plan on PilotEdge
Remarks: CSTP61
Altitude:
(Current/Filed)
4,000ft
Speed:
(Current/Filed)
100kts
Departed: 27-Dec-19 12:34 PM
Arrived: 27-Dec-19 01:30 PM
Distance/Time
Traveled:
37nm/0:56
Distance/Time
To Go:
Arrived

Flight Plot

Page will automatically refresh every two minutes.

Flight plan parsing failed; only flown route is shown


Map Options




Map Legend


Flown Route
Filed Route
Departure Airport
Arrival Airport
Navaid (VOR, NDB)
Fix

Horizontal Profiles

Position Reports

Time Latitude Longitude Heading Altitude Ground
Speed
27-Dec-19 12:25 33.403299 -118.415791 318 1548ft 0kts
27-Dec-19 12:26 33.403299 -118.415791 318 1548ft 0kts
27-Dec-19 12:27 33.403301 -118.415794 319 1548ft 0kts
27-Dec-19 12:28 33.403301 -118.415794 319 1548ft 0kts
27-Dec-19 12:29 33.403301 -118.415794 319 1548ft 0kts
27-Dec-19 12:30 33.403301 -118.415794 319 1548ft 0kts
27-Dec-19 12:31 33.404825 -118.415394 55 1543ft 17kts
27-Dec-19 12:32 33.407095 -118.411548 54 1498ft 1kts
27-Dec-19 12:33 33.400572 -118.422504 231 1779ft 64kts
27-Dec-19 12:34 33.404248 -118.426726 50 2335ft 67kts
27-Dec-19 12:35 33.421089 -118.401343 39 2346ft 114kts
27-Dec-19 12:36 33.446030 -118.376705 34 2550ft 103kts
27-Dec-19 12:37 33.465049 -118.358496 30 3396ft 66kts
27-Dec-19 12:38 33.480100 -118.345811 24 3889ft 67kts
27-Dec-19 12:39 33.499072 -118.326571 35 3983ft 109kts
27-Dec-19 12:40 33.524679 -118.301908 35 3974ft 115kts
27-Dec-19 12:41 33.549814 -118.277937 34 4239ft 101kts
27-Dec-19 12:42 33.571542 -118.257221 33 4740ft 90kts
27-Dec-19 12:43 33.589483 -118.235700 42 5241ft 85kts
27-Dec-19 12:45 33.605181 -118.214321 42 5746ft 79kts
27-Dec-19 12:46 33.619506 -118.194632 42 5995ft 76kts
27-Dec-19 12:47 33.633413 -118.175842 41 5995ft 69kts
27-Dec-19 12:48 33.645638 -118.158873 43 6060ft 69kts
27-Dec-19 12:49 33.662760 -118.136326 42 6030ft 103kts
27-Dec-19 12:50 33.683653 -118.109954 42 6024ft 109kts
27-Dec-19 12:51 33.705094 -118.083369 42 6023ft 110kts
27-Dec-19 12:52 33.726401 -118.056934 42 6024ft 110kts
27-Dec-19 12:53 33.746558 -118.029376 64 6021ft 113kts
27-Dec-19 12:54 33.765461 -118.002018 42 6021ft 100kts
27-Dec-19 12:55 33.784436 -117.978612 42 6022ft 96kts
27-Dec-19 12:56 33.803205 -117.955398 42 6023ft 96kts
27-Dec-19 12:57 33.812884 -117.924405 67 6010ft 102kts
27-Dec-19 12:58 33.821982 -117.892565 65 6023ft 98kts
27-Dec-19 12:59 33.831326 -117.860418 68 6016ft 102kts
27-Dec-19 13:00 33.840560 -117.827706 65 6029ft 104kts
27-Dec-19 13:01 33.850097 -117.794753 66 6057ft 106kts
27-Dec-19 13:02 33.875567 -117.784735 0 6047ft 102kts
27-Dec-19 13:03 33.903501 -117.783628 359 6056ft 101kts
27-Dec-19 13:04 33.931567 -117.784000 359 6053ft 100kts
27-Dec-19 13:05 33.959310 -117.784606 357 6049ft 103kts
27-Dec-19 13:05 33.982853 -117.784966 358 6057ft 101kts
27-Dec-19 13:07 34.009377 -117.800175 298 6090ft 104kts
27-Dec-19 13:07 34.019744 -117.827131 292 6042ft 106kts
27-Dec-19 13:08 34.030435 -117.859834 291 6065ft 103kts
27-Dec-19 13:10 34.041968 -117.897555 292 6071ft 104kts
27-Dec-19 13:10 34.050382 -117.925018 291 6083ft 104kts
27-Dec-19 13:11 34.060657 -117.958050 292 6068ft 104kts
27-Dec-19 13:12 34.070626 -117.990409 292 6068ft 102kts
27-Dec-19 13:13 34.080471 -118.022420 292 6068ft 100kts
27-Dec-19 13:14 34.090160 -118.053986 293 6071ft 99kts
27-Dec-19 13:15 34.099798 -118.085322 292 6069ft 100kts
27-Dec-19 13:16 34.109427 -118.116777 292 6071ft 100kts
27-Dec-19 13:17 34.119151 -118.148589 292 6074ft 101kts
27-Dec-19 13:18 34.129026 -118.180777 292 6034ft 101kts
27-Dec-19 13:19 34.131734 -118.214978 262 5795ft 111kts
27-Dec-19 13:20 34.126216 -118.249811 262 5185ft 102kts
27-Dec-19 13:21 34.118310 -118.283039 246 4532ft 105kts
27-Dec-19 13:22 34.103638 -118.313049 240 3971ft 103kts
27-Dec-19 13:23 34.090399 -118.342706 243 3675ft 101kts
27-Dec-19 13:24 34.076756 -118.371714 237 3024ft 92kts
27-Dec-19 13:25 34.062663 -118.395288 231 2280ft 84kts
27-Dec-19 13:26 34.047190 -118.414745 224 1547ft 74kts
27-Dec-19 13:27 34.031420 -118.433018 223 706ft 76kts
27-Dec-19 13:28 34.017469 -118.449326 223 148ft 52kts
27-Dec-19 13:29 34.014614 -118.451617 44 132ft 19kts
27-Dec-19 13:30 34.019309 -118.445528 174 158ft 10kts
27-Dec-19 13:31 34.017693 -118.445813 314 155ft 0kts

Navigation Log

Ident Type
Flight plan parsing failed, navigation log unavailable